createdAt,value
2023-04-26T00:00:49.953Z,0.00
2023-04-26T00:01:49.913Z,0.00
2023-04-26T00:02:50.002Z,0.00
2023-04-26T00:03:50.155Z,0.00
2023-04-26T00:04:50.066Z,0.00
2023-04-26T00:05:49.958Z,0.00
2023-04-26T00:06:49.878Z,0.00
2023-04-26T00:07:49.890Z,0.00
2023-04-26T00:08:50.020Z,0.00
2023-04-26T00:09:49.837Z,0.00
2023-04-26T00:10:49.851Z,0.00
2023-04-26T00:11:49.841Z,0.00
2023-04-26T00:12:49.808Z,0.00
2023-04-26T00:13:49.828Z,0.00
2023-04-26T00:14:49.829Z,0.00
2023-04-26T00:15:49.921Z,0.00
2023-04-26T00:16:49.779Z,0.00
2023-04-26T00:17:49.785Z,0.00
2023-04-26T00:18:49.765Z,0.00
2023-04-26T00:19:49.761Z,0.00
2023-04-26T00:20:49.744Z,0.00
2023-04-26T00:21:49.793Z,0.00
2023-04-26T00:22:49.719Z,0.00
2023-04-26T00:23:49.719Z,0.00
2023-04-26T00:24:50.701Z,0.00
2023-04-26T00:25:49.709Z,0.00
2023-04-26T00:26:49.689Z,0.00
2023-04-26T00:27:49.680Z,0.00
2023-04-26T00:28:49.673Z,0.00
2023-04-26T00:29:49.653Z,0.00
2023-04-26T00:30:49.646Z,0.00
2023-04-26T00:31:49.688Z,0.00
2023-04-26T00:32:49.642Z,0.00
2023-04-26T00:33:49.619Z,0.00
2023-04-26T00:34:49.599Z,0.00
2023-04-26T00:35:49.579Z,0.00
2023-04-26T00:36:49.568Z,0.00
2023-04-26T00:37:49.624Z,0.00
2023-04-26T00:38:49.768Z,0.00
2023-04-26T00:39:49.559Z,0.00
2023-04-26T00:40:49.552Z,0.00
2023-04-26T00:41:49.516Z,0.00
2023-04-26T00:42:49.511Z,0.00
2023-04-26T00:43:49.537Z,0.00
2023-04-26T00:44:49.511Z,0.00
2023-04-26T00:45:49.516Z,0.00
2023-04-26T00:46:49.487Z,0.00
2023-04-26T00:47:49.531Z,0.00
2023-04-26T00:48:49.527Z,0.00
2023-04-26T00:49:49.468Z,0.00
2023-04-26T00:50:49.442Z,0.00
2023-04-26T00:51:49.418Z,0.00
2023-04-26T00:52:49.431Z,0.00
2023-04-26T00:53:49.401Z,0.00
2023-04-26T00:54:49.434Z,0.00
2023-04-26T00:55:49.436Z,0.00
2023-04-26T00:56:49.372Z,0.00
2023-04-26T00:57:49.379Z,0.00
2023-04-26T00:58:49.737Z,0.00
2023-04-26T00:59:49.358Z,0.00
2023-04-26T01:00:49.336Z,0.00
2023-04-26T01:01:49.405Z,0.00
2023-04-26T01:02:49.409Z,0.00
2023-04-26T01:03:49.526Z,0.00
2023-04-26T01:04:49.300Z,0.00
2023-04-26T01:05:49.302Z,0.00
2023-04-26T01:06:49.265Z,0.00
2023-04-26T01:07:49.271Z,0.00
2023-04-26T01:08:49.429Z,0.00
2023-04-26T01:09:49.313Z,0.00
2023-04-26T01:10:49.253Z,0.00
2023-04-26T01:11:49.225Z,0.00
2023-04-26T01:12:49.235Z,0.00
2023-04-26T01:13:49.208Z,0.00
2023-04-26T01:14:49.213Z,0.00
2023-04-26T01:15:49.198Z,0.00
2023-04-26T01:16:49.217Z,0.00
2023-04-26T01:17:49.201Z,0.00
2023-04-26T01:18:49.294Z,0.00
2023-04-26T01:19:49.177Z,0.00
2023-04-26T01:20:49.142Z,0.00
2023-04-26T01:21:49.129Z,0.00
2023-04-26T01:22:49.111Z,0.00
2023-04-26T01:23:49.123Z,0.00
2023-04-26T01:24:49.086Z,0.00
2023-04-26T01:25:49.080Z,0.00
2023-04-26T01:26:49.074Z,0.00
2023-04-26T01:27:49.067Z,0.00
2023-04-26T01:28:49.131Z,0.00
2023-04-26T01:29:49.058Z,0.00
2023-04-26T01:30:49.041Z,0.00
2023-04-26T01:31:49.019Z,0.00
2023-04-26T01:32:49.030Z,0.00
2023-04-26T01:33:49.027Z,0.00
2023-04-26T01:34:48.999Z,0.00
2023-04-26T01:35:48.971Z,0.00
2023-04-26T01:36:48.973Z,0.00
2023-04-26T01:37:48.971Z,0.00
2023-04-26T01:38:49.083Z,0.00
2023-04-26T01:39:48.945Z,0.00
2023-04-26T01:40:48.947Z,0.00
2023-04-26T01:41:48.934Z,0.00
2023-04-26T01:42:48.925Z,0.00
2023-04-26T01:43:48.917Z,0.00
2023-04-26T01:44:48.949Z,0.00
2023-04-26T01:45:48.906Z,0.00
2023-04-26T01:46:48.994Z,0.00
2023-04-26T01:47:48.920Z,0.00
2023-04-26T01:48:48.881Z,0.00
2023-04-26T01:49:48.890Z,0.00
2023-04-26T01:50:48.846Z,0.00
2023-04-26T01:51:48.845Z,0.00
2023-04-26T01:52:48.811Z,0.00
2023-04-26T01:53:48.807Z,0.00
2023-04-26T01:54:48.827Z,0.00
2023-04-26T01:55:48.810Z,0.00
2023-04-26T01:56:48.790Z,0.00
2023-04-26T01:57:48.762Z,0.00
2023-04-26T01:58:48.762Z,0.00
2023-04-26T01:59:48.776Z,0.00
2023-04-26T02:00:48.744Z,0.00
2023-04-26T02:01:48.762Z,0.00
2023-04-26T02:02:48.832Z,0.00
2023-04-26T02:03:48.753Z,0.00
2023-04-26T02:04:48.734Z,0.00
2023-04-26T02:05:48.695Z,0.00
2023-04-26T02:06:48.667Z,0.00
2023-04-26T02:07:48.689Z,0.00
2023-04-26T02:08:48.655Z,0.00
2023-04-26T02:09:48.690Z,0.00
2023-04-26T02:10:48.645Z,0.00
2023-04-26T02:11:48.634Z,0.00
2023-04-26T02:12:48.617Z,0.00
2023-04-26T02:13:48.681Z,0.00
2023-04-26T02:14:48.615Z,0.00
2023-04-26T02:15:48.605Z,0.00
2023-04-26T02:16:48.585Z,0.00
2023-04-26T02:17:48.636Z,0.00
2023-04-26T02:18:48.573Z,0.00
2023-04-26T02:19:48.561Z,0.00
2023-04-26T02:20:48.541Z,0.00
2023-04-26T02:21:48.549Z,0.00
2023-04-26T02:22:48.530Z,0.00
2023-04-26T02:23:48.520Z,0.00
2023-04-26T02:24:48.527Z,0.00
2023-04-26T02:25:48.498Z,0.00
2023-04-26T02:26:48.483Z,0.00
2023-04-26T02:27:48.474Z,0.00
2023-04-26T02:28:48.487Z,0.00
2023-04-26T02:29:48.478Z,0.00
2023-04-26T02:30:48.438Z,0.00
2023-04-26T02:31:48.468Z,0.00
2023-04-26T02:32:48.445Z,0.00
2023-04-26T02:33:48.439Z,0.00
2023-04-26T02:34:48.427Z,0.00
2023-04-26T02:35:48.387Z,0.00
2023-04-26T02:36:48.397Z,0.00
2023-04-26T02:37:48.423Z,0.00
2023-04-26T02:38:48.380Z,0.00
2023-04-26T02:39:48.386Z,0.00
2023-04-26T02:40:48.366Z,0.00
2023-04-26T02:41:48.330Z,0.00
2023-04-26T02:42:48.320Z,0.00
2023-04-26T02:43:48.316Z,0.00
2023-04-26T02:44:48.309Z,0.00
2023-04-26T02:45:48.392Z,0.00
2023-04-26T02:46:48.361Z,0.00
2023-04-26T02:47:48.335Z,0.00
2023-04-26T02:48:48.266Z,0.00
2023-04-26T02:49:48.272Z,0.00
2023-04-26T02:50:48.245Z,0.00
2023-04-26T02:51:48.237Z,0.00
2023-04-26T02:52:48.227Z,0.00
2023-04-26T02:53:48.234Z,0.00
2023-04-26T02:54:48.212Z,0.00
2023-04-26T02:55:48.217Z,0.00
2023-04-26T02:56:48.185Z,0.00
2023-04-26T02:57:48.192Z,0.00
2023-04-26T03:00:58.281Z,0.00
2023-04-26T03:01:33.142Z,0.00
2023-04-26T03:02:33.254Z,0.00
2023-04-26T03:03:33.226Z,0.00
2023-04-26T03:04:32.996Z,0.00
2023-04-26T03:05:33.004Z,0.00
2023-04-26T03:06:32.975Z,0.00
2023-04-26T03:07:32.972Z,0.00
2023-04-26T03:08:32.955Z,0.00
2023-04-26T03:09:32.946Z,0.00
2023-04-26T03:10:32.938Z,0.00
2023-04-26T03:11:32.927Z,0.00
2023-04-26T03:12:32.911Z,0.00
2023-04-26T03:13:32.905Z,0.00
2023-04-26T03:14:32.893Z,0.00
2023-04-26T03:15:32.895Z,0.00
2023-04-26T03:16:32.885Z,0.00
2023-04-26T03:17:32.934Z,0.00
2023-04-26T03:18:32.865Z,0.00
2023-04-26T03:19:32.841Z,0.00
2023-04-26T03:20:32.841Z,0.00
2023-04-26T03:21:32.831Z,0.00
2023-04-26T03:22:32.815Z,0.00
2023-04-26T03:23:32.806Z,0.00
2023-04-26T03:24:32.792Z,0.00
2023-04-26T03:25:32.796Z,0.00
2023-04-26T03:26:32.770Z,0.00
2023-04-26T03:27:32.759Z,0.00
2023-04-26T03:28:32.752Z,0.00
2023-04-26T03:29:32.743Z,0.00
2023-04-26T03:30:32.735Z,0.00
2023-04-26T03:31:32.749Z,0.00
2023-04-26T03:32:32.769Z,0.00
2023-04-26T03:33:32.709Z,0.00
2023-04-26T03:34:32.690Z,0.00
2023-04-26T03:35:32.690Z,0.00
2023-04-26T03:36:32.667Z,4.00
2023-04-26T03:37:32.666Z,4.00
2023-04-26T03:38:32.647Z,0.00
2023-04-26T03:39:32.641Z,4.00
2023-04-26T03:40:32.630Z,4.00
2023-04-26T03:41:32.616Z,0.00
2023-04-26T03:42:32.614Z,4.00
2023-04-26T03:43:32.602Z,4.00
2023-04-26T03:44:32.580Z,8.00
2023-04-26T03:45:32.619Z,8.00
2023-04-26T03:46:32.668Z,8.00
2023-04-26T03:47:32.581Z,8.00
2023-04-26T03:48:32.542Z,12.00
2023-04-26T03:49:32.532Z,12.00
2023-04-26T03:50:32.531Z,12.00
2023-04-26T03:51:32.512Z,16.00
2023-04-26T03:52:32.512Z,20.00
2023-04-26T03:53:32.507Z,20.00
2023-04-26T03:54:32.484Z,24.00
2023-04-26T03:55:32.476Z,32.00
2023-04-26T03:56:32.456Z,32.00
2023-04-26T03:57:32.449Z,36.00
2023-04-26T03:58:32.449Z,44.00
2023-04-26T03:59:32.432Z,48.00
2023-04-26T04:00:32.426Z,56.00
2023-04-26T04:01:32.405Z,60.00
2023-04-26T04:02:32.537Z,68.00
2023-04-26T04:03:32.547Z,76.00
2023-04-26T04:04:32.547Z,84.00
2023-04-26T04:05:32.416Z,92.00
2023-04-26T04:06:32.360Z,104.00
2023-04-26T04:07:32.348Z,116.00
2023-04-26T04:08:32.327Z,124.00
2023-04-26T04:09:32.338Z,136.00
2023-04-26T04:10:32.322Z,148.00
2023-04-26T04:11:32.304Z,164.00
2023-04-26T04:12:32.302Z,176.00
2023-04-26T04:13:32.286Z,192.00
2023-04-26T04:14:32.273Z,208.00
2023-04-26T04:15:32.322Z,228.00
2023-04-26T04:16:32.277Z,244.00
2023-04-26T04:17:32.310Z,260.00
2023-04-26T04:18:32.245Z,276.00
2023-04-26T04:19:32.222Z,296.00
2023-04-26T04:20:32.224Z,316.00
2023-04-26T04:21:32.199Z,336.00
2023-04-26T04:22:32.201Z,356.00
2023-04-26T04:23:32.187Z,376.00
2023-04-26T04:24:34.290Z,400.00
2023-04-26T04:25:32.169Z,420.00
2023-04-26T04:26:32.275Z,444.00
2023-04-26T04:27:32.167Z,464.00
2023-04-26T04:28:32.128Z,484.00
2023-04-26T04:29:32.124Z,508.00
2023-04-26T04:30:32.125Z,528.00
2023-04-26T04:31:32.123Z,556.00
2023-04-26T04:32:34.197Z,580.00
2023-04-26T04:33:32.080Z,604.00
2023-04-26T04:34:32.096Z,624.00
2023-04-26T04:35:32.076Z,652.00
2023-04-26T04:36:32.048Z,676.00
2023-04-26T04:37:32.044Z,700.00
2023-04-26T04:38:32.031Z,724.00
2023-04-26T04:39:32.024Z,748.00
2023-04-26T04:40:32.029Z,768.00
2023-04-26T04:41:32.003Z,788.00
2023-04-26T04:42:31.995Z,816.00
2023-04-26T04:43:31.988Z,848.00
2023-04-26T04:44:31.974Z,892.00
2023-04-26T04:45:31.968Z,936.00
2023-04-26T04:46:32.004Z,976.00
2023-04-26T04:47:31.970Z,988.00
2023-04-26T04:48:31.927Z,996.00
2023-04-26T04:49:31.928Z,1024.00
2023-04-26T04:50:31.923Z,1056.00
2023-04-26T04:51:31.899Z,1096.00
2023-04-26T04:52:31.893Z,1132.00
2023-04-26T04:53:31.882Z,1168.00
2023-04-26T04:54:31.875Z,1212.00
2023-04-26T04:55:31.875Z,1244.00
2023-04-26T04:56:31.856Z,1284.00
2023-04-26T04:57:31.845Z,1320.00
2023-04-26T04:58:31.889Z,1356.00
2023-04-26T04:59:31.881Z,1396.00
2023-04-26T05:00:31.821Z,1424.00
2023-04-26T05:01:31.816Z,1460.00
2023-04-26T05:02:31.860Z,1500.00
2023-04-26T05:03:31.927Z,1524.00
2023-04-26T05:04:32.044Z,1556.00
2023-04-26T05:05:31.760Z,1576.00
2023-04-26T05:06:31.753Z,1608.00
2023-04-26T05:07:31.746Z,1616.00
2023-04-26T05:08:31.732Z,1684.00
2023-04-26T05:09:31.726Z,1700.00
2023-04-26T05:10:31.724Z,1752.00
2023-04-26T05:11:31.704Z,1784.00
2023-04-26T05:12:31.695Z,1800.00
2023-04-26T05:13:31.679Z,1904.00
2023-04-26T05:14:31.716Z,1952.00
2023-04-26T05:15:31.698Z,1996.00
2023-04-26T05:16:31.678Z,2060.00
2023-04-26T05:17:31.707Z,2044.00
2023-04-26T05:18:31.635Z,2136.00
2023-04-26T05:19:31.631Z,2224.00
2023-04-26T05:20:31.630Z,2276.00
2023-04-26T05:21:31.616Z,2364.00
2023-04-26T05:22:31.601Z,2424.00
2023-04-26T05:23:31.590Z,2460.00
2023-04-26T05:24:31.602Z,2496.00
2023-04-26T05:25:31.582Z,2544.00
2023-04-26T05:26:31.563Z,2588.00
2023-04-26T05:27:31.556Z,2628.00
2023-04-26T05:28:31.545Z,2636.00
2023-04-26T05:29:31.536Z,2728.00
2023-04-26T05:30:31.549Z,2764.00
2023-04-26T05:31:31.620Z,2808.00
2023-04-26T05:32:31.557Z,2852.00
2023-04-26T05:33:31.495Z,2900.00
2023-04-26T05:34:31.487Z,2948.00
2023-04-26T05:35:31.482Z,2992.00
2023-04-26T05:36:31.467Z,3028.00
2023-04-26T05:37:31.455Z,3084.00
2023-04-26T05:38:31.446Z,3148.00
2023-04-26T05:39:31.433Z,3212.00
2023-04-26T05:40:31.438Z,3272.00
2023-04-26T05:41:31.410Z,3324.00
2023-04-26T05:42:31.420Z,3368.00
2023-04-26T05:43:31.392Z,3424.00
2023-04-26T05:44:31.387Z,3480.00
2023-04-26T05:45:31.449Z,3528.00
2023-04-26T05:46:31.396Z,3328.00
2023-04-26T05:47:31.391Z,3580.00
2023-04-26T05:48:31.352Z,3664.00
2023-04-26T05:49:31.330Z,3504.00
2023-04-26T05:50:31.343Z,3436.00
2023-04-26T05:51:31.322Z,3764.00
2023-04-26T05:52:31.322Z,3792.00
2023-04-26T05:53:31.294Z,3840.00
2023-04-26T05:54:31.286Z,3892.00
2023-04-26T05:55:31.293Z,3936.00
2023-04-26T05:56:31.264Z,3984.00
2023-04-26T05:57:31.417Z,4020.00
2023-04-26T05:58:31.251Z,4068.00
2023-04-26T05:59:31.255Z,4112.00
2023-04-26T06:00:31.234Z,4148.00
2023-04-26T06:01:31.220Z,4188.00
2023-04-26T06:02:31.313Z,4228.00
2023-04-26T06:03:31.431Z,4268.00
2023-04-26T06:04:31.279Z,4300.00
2023-04-26T06:05:31.242Z,4336.00
2023-04-26T06:06:31.162Z,4372.00
2023-04-26T06:07:31.150Z,4412.00
2023-04-26T06:08:31.149Z,4432.00
2023-04-26T06:09:31.124Z,4480.00
2023-04-26T06:10:31.129Z,4520.00
2023-04-26T06:11:31.126Z,4568.00
2023-04-26T06:12:31.122Z,4608.00
2023-04-26T06:13:31.091Z,4652.00
2023-04-26T06:14:31.202Z,4700.00
2023-04-26T06:15:31.085Z,4728.00
2023-04-26T06:16:31.133Z,4764.00
2023-04-26T06:17:31.060Z,4800.00
2023-04-26T06:18:31.052Z,4836.00
2023-04-26T06:19:31.028Z,4860.00
2023-04-26T06:20:31.040Z,4904.00
2023-04-26T06:21:31.007Z,4936.00
2023-04-26T06:22:30.997Z,4964.00
2023-04-26T06:23:31.004Z,5012.00
2023-04-26T06:24:30.982Z,5036.00
2023-04-26T06:25:30.975Z,5068.00
2023-04-26T06:26:30.978Z,5100.00
2023-04-26T06:27:30.949Z,5140.00
2023-04-26T06:28:30.954Z,5180.00
2023-04-26T06:29:30.930Z,5208.00
2023-04-26T06:30:30.937Z,5244.00
2023-04-26T06:31:31.020Z,5272.00
2023-04-26T06:32:30.924Z,5328.00
2023-04-26T06:33:30.889Z,5348.00
2023-04-26T06:34:30.880Z,5380.00
2023-04-26T06:35:30.875Z,5408.00
2023-04-26T06:36:30.886Z,5436.00
2023-04-26T06:37:30.848Z,5464.00
2023-04-26T06:38:30.841Z,5488.00
2023-04-26T06:39:30.831Z,5528.00
2023-04-26T06:40:30.828Z,5564.00
2023-04-26T06:41:30.814Z,5600.00
2023-04-26T06:42:30.794Z,5628.00
2023-04-26T06:43:31.020Z,5656.00
2023-04-26T06:44:30.877Z,5692.00
2023-04-26T06:45:30.763Z,5712.00
2023-04-26T06:46:30.814Z,5756.00
2023-04-26T06:47:30.826Z,5788.00
2023-04-26T06:48:30.741Z,5812.00
2023-04-26T06:49:30.740Z,5844.00
2023-04-26T06:50:30.720Z,5868.00
2023-04-26T06:51:30.710Z,5896.00
2023-04-26T06:52:30.691Z,5916.00
2023-04-26T06:53:30.680Z,5936.00
2023-04-26T06:54:30.668Z,5968.00
2023-04-26T06:55:30.668Z,6016.00
2023-04-26T06:56:30.662Z,6016.00
2023-04-26T06:57:30.650Z,6036.00
2023-04-26T06:58:30.638Z,6064.00
2023-04-26T06:59:30.628Z,6072.00
2023-04-26T07:00:30.766Z,6100.00
2023-04-26T07:01:30.646Z,6108.00
2023-04-26T07:02:30.687Z,6132.00
2023-04-26T07:03:30.684Z,6176.00
2023-04-26T07:04:30.952Z,6200.00
2023-04-26T07:05:30.560Z,6232.00
2023-04-26T07:06:30.571Z,6292.00
2023-04-26T07:07:30.538Z,6344.00
2023-04-26T07:08:30.527Z,6380.00
2023-04-26T07:09:30.518Z,6412.00
2023-04-26T07:10:30.515Z,6464.00
2023-04-26T07:11:30.509Z,6504.00
2023-04-26T07:12:30.481Z,6548.00
2023-04-26T07:13:30.468Z,6624.00
2023-04-26T07:14:30.466Z,6712.00
2023-04-26T07:15:30.455Z,6824.00
2023-04-26T07:16:30.716Z,6948.00
2023-04-26T07:17:30.447Z,7036.00
2023-04-26T07:18:30.424Z,7200.00
2023-04-26T07:19:30.413Z,5168.00
2023-04-26T07:20:30.404Z,6548.00
2023-04-26T07:21:30.404Z,7364.00
2023-04-26T07:22:30.385Z,7424.00
2023-04-26T07:23:30.369Z,7524.00
2023-04-26T07:24:30.358Z,6856.00
2023-04-26T07:25:30.345Z,7752.00
2023-04-26T07:26:30.355Z,7764.00
2023-04-26T07:27:30.324Z,7920.00
2023-04-26T07:28:30.315Z,7852.00
2023-04-26T07:29:30.302Z,7864.00
2023-04-26T07:30:30.295Z,5172.00
2023-04-26T07:31:30.295Z,4164.00
2023-04-26T07:32:30.380Z,3852.00
2023-04-26T07:33:30.326Z,3896.00
2023-04-26T07:34:30.259Z,4028.00
2023-04-26T07:35:30.257Z,4200.00
2023-04-26T07:36:30.248Z,4416.00
2023-04-26T07:37:30.227Z,4636.00
2023-04-26T07:38:30.218Z,4784.00
2023-04-26T07:39:30.213Z,5000.00
2023-04-26T07:40:30.190Z,4832.00
2023-04-26T07:41:30.196Z,4752.00
2023-04-26T07:42:30.176Z,4536.00
2023-04-26T07:43:30.162Z,4060.00
2023-04-26T07:44:30.165Z,3760.00
2023-04-26T07:45:30.176Z,3644.00
2023-04-26T07:46:30.150Z,3728.00
2023-04-26T07:47:30.127Z,3696.00
2023-04-26T07:48:30.129Z,3584.00
2023-04-26T07:49:30.100Z,3420.00
2023-04-26T07:50:30.091Z,3392.00
2023-04-26T07:51:30.097Z,3604.00
2023-04-26T07:52:30.076Z,6016.00
2023-04-26T07:53:30.059Z,4400.00
2023-04-26T07:54:30.045Z,3620.00
2023-04-26T07:55:30.031Z,3440.00
2023-04-26T07:56:30.028Z,3464.00
2023-04-26T07:57:30.026Z,4280.00
2023-04-26T07:58:30.011Z,3888.00
2023-04-26T07:59:29.988Z,3672.00
2023-04-26T08:00:29.986Z,3708.00
2023-04-26T08:01:29.966Z,3736.00
2023-04-26T08:02:43.527Z,3708.00
2023-04-26T08:03:31.120Z,3632.00
2023-04-26T08:04:30.141Z,3572.00
2023-04-26T08:05:30.145Z,3484.00
2023-04-26T08:06:29.921Z,3488.00
2023-04-26T08:07:29.933Z,3492.00
2023-04-26T08:08:29.896Z,3524.00
2023-04-26T08:09:29.890Z,3504.00
2023-04-26T08:10:29.897Z,3440.00
2023-04-26T08:11:29.896Z,3364.00
2023-04-26T08:12:29.873Z,3356.00
2023-04-26T08:13:29.845Z,3396.00
2023-04-26T08:14:29.850Z,3496.00
2023-04-26T08:15:30.074Z,3628.00
2023-04-26T09:35:36.153Z,9428.00
2023-04-26T09:36:36.108Z,9912.00
2023-04-26T09:37:41.168Z,9812.00
2023-04-26T10:33:03.324Z,7460.00
2023-04-26T10:34:03.190Z,6736.00
2023-04-26T10:35:03.178Z,6000.00
2023-04-26T10:36:03.179Z,5412.00
2023-04-26T10:37:03.151Z,5056.00
2023-04-26T10:38:03.142Z,4872.00
2023-04-26T10:39:03.132Z,4780.00
2023-04-26T10:40:03.120Z,4588.00
2023-04-26T10:41:03.103Z,4332.00
2023-04-26T10:42:03.102Z,4132.00
2023-04-26T10:43:03.083Z,3992.00
2023-04-26T10:44:03.089Z,3952.00
2023-04-26T10:45:03.059Z,3996.00
2023-04-26T10:46:03.109Z,4032.00
2023-04-26T10:47:03.058Z,4020.00
2023-04-26T10:48:03.058Z,4024.00
2023-04-26T10:49:03.047Z,4108.00
2023-04-26T10:50:05.110Z,4304.00
2023-04-26T10:51:03.015Z,4544.00
2023-04-26T10:52:03.006Z,4808.00
2023-04-26T10:53:03.005Z,5060.00
2023-04-26T10:54:03.013Z,5328.00
2023-04-26T10:55:02.978Z,5588.00
2023-04-26T10:56:02.979Z,5784.00
2023-04-26T10:57:02.946Z,5864.00
2023-04-26T10:58:02.950Z,5872.00
2023-04-26T10:59:06.278Z,5812.00
2023-04-26T11:00:03.917Z,5728.00
2023-04-26T11:01:02.939Z,5668.00
2023-04-26T11:02:02.910Z,5632.00
2023-04-26T11:03:02.952Z,5368.00
2023-04-26T11:04:02.955Z,5200.00
2023-04-26T11:05:02.990Z,5012.00
2023-04-26T11:06:02.864Z,4788.00
2023-04-26T11:07:02.840Z,4604.00
2023-04-26T11:08:02.872Z,4396.00
2023-04-26T11:09:02.827Z,4324.00
2023-04-26T11:10:02.828Z,4280.00
2023-04-26T11:11:03.948Z,4148.00
2023-04-26T11:12:03.947Z,3984.00
2023-04-26T11:13:03.952Z,3864.00
2023-04-26T11:14:03.921Z,3792.00
2023-04-26T11:15:03.924Z,3756.00
2023-04-26T11:16:03.978Z,3744.00
2023-04-26T11:17:03.881Z,3724.00
2023-04-26T11:18:03.966Z,3748.00
2023-04-26T11:19:03.890Z,3820.00
2023-04-26T11:20:04.048Z,3884.00
2023-04-26T11:21:03.841Z,3888.00
2023-04-26T11:22:03.855Z,3888.00
2023-04-26T11:23:04.846Z,3896.00
2023-04-26T11:24:03.852Z,3892.00
2023-04-26T11:25:03.813Z,3876.00
2023-04-26T11:26:03.814Z,3788.00
2023-04-26T11:27:03.828Z,3644.00
2023-04-26T11:28:03.815Z,3424.00
2023-04-26T11:29:03.786Z,3276.00
2023-04-26T11:30:03.854Z,3304.00
2023-04-26T11:31:05.965Z,3388.00
2023-04-26T11:32:03.766Z,3448.00
2023-04-26T11:33:03.794Z,3552.00
2023-04-26T11:34:03.757Z,3780.00
2023-04-26T11:35:03.723Z,4144.00
2023-04-26T11:36:03.761Z,4628.00
2023-04-26T11:37:03.710Z,5140.00
2023-04-26T11:38:03.699Z,5604.00
2023-04-26T11:39:03.707Z,6044.00
2023-04-26T11:40:03.709Z,6496.00
2023-04-26T11:41:03.675Z,6936.00
2023-04-26T11:42:03.662Z,7212.00
2023-04-26T11:43:03.676Z,7316.00
2023-04-26T11:44:03.669Z,7420.00
2023-04-26T11:45:03.635Z,7544.00
2023-04-26T11:46:03.691Z,7756.00
2023-04-26T11:47:03.651Z,7920.00
2023-04-26T11:48:03.623Z,8156.00
2023-04-26T11:49:03.582Z,8296.00
2023-04-26T11:50:03.584Z,8776.00
2023-04-26T11:51:03.568Z,8948.00
2023-04-26T11:52:03.577Z,7476.00
2023-04-26T11:53:03.564Z,6580.00
2023-04-26T11:54:03.537Z,6332.00
2023-04-26T11:55:03.529Z,5680.00
2023-04-26T11:56:03.551Z,5312.00
2023-04-26T11:57:03.514Z,5252.00
2023-04-26T11:58:03.503Z,5416.00
2023-04-26T11:59:03.470Z,5780.00
2023-04-26T12:00:03.459Z,6064.00
2023-04-26T12:01:03.459Z,6316.00
2023-04-26T12:02:03.488Z,6320.00
2023-04-26T12:03:03.683Z,6072.00
2023-04-26T12:04:03.568Z,5808.00
2023-04-26T12:05:03.682Z,5680.00
2023-04-26T12:06:03.415Z,5632.00
2023-04-26T12:07:03.390Z,5604.00
2023-04-26T12:08:03.412Z,5528.00
2023-04-26T12:09:03.505Z,5392.00
2023-04-26T12:10:03.396Z,5228.00
2023-04-26T12:11:03.408Z,5056.00
2023-04-26T12:12:03.369Z,4952.00
2023-04-26T12:13:03.366Z,4928.00
2023-04-26T12:14:03.376Z,4984.00
2023-04-26T12:15:03.343Z,5140.00
2023-04-26T12:16:07.342Z,5400.00
2023-04-26T12:17:04.460Z,5744.00
2023-04-26T12:18:03.366Z,6148.00
2023-04-26T12:19:03.337Z,6648.00
2023-04-26T12:20:03.351Z,7144.00
2023-04-26T12:21:03.278Z,8548.00
2023-04-26T12:22:03.266Z,7488.00
2023-04-26T12:23:03.271Z,7352.00
2023-04-26T12:24:03.238Z,7152.00
2023-04-26T12:25:03.302Z,7012.00
2023-04-26T12:26:03.214Z,7048.00
2023-04-26T12:27:03.215Z,7268.00
2023-04-26T12:28:03.252Z,7476.00
2023-04-26T12:29:03.210Z,7564.00
2023-04-26T12:30:03.208Z,7544.00
2023-04-26T12:31:03.814Z,7472.00
2023-04-26T12:32:03.425Z,7336.00
2023-04-26T12:33:15.684Z,7076.00
2023-04-26T12:34:05.130Z,6648.00
2023-04-26T12:35:03.166Z,6172.00
2023-04-26T12:36:03.127Z,5692.00
2023-04-26T12:37:03.114Z,5280.00
2023-04-26T12:38:03.092Z,4960.00
2023-04-26T12:39:03.084Z,4748.00
2023-04-26T12:40:03.077Z,4628.00
2023-04-26T12:41:03.068Z,4528.00
2023-04-26T12:42:03.059Z,4420.00
2023-04-26T12:43:03.085Z,4312.00
2023-04-26T12:44:03.042Z,4232.00
2023-04-26T12:45:03.052Z,4168.00
2023-04-26T12:46:03.071Z,4048.00
2023-04-26T12:47:03.011Z,3988.00
2023-04-26T12:48:03.044Z,3964.00
2023-04-26T12:49:03.007Z,3996.00
2023-04-26T12:50:02.967Z,4052.00
2023-04-26T12:51:02.961Z,4080.00
2023-04-26T12:52:02.943Z,4088.00
2023-04-26T12:53:02.955Z,4088.00
2023-04-26T12:54:02.944Z,4132.00
2023-04-26T12:55:02.922Z,4212.00
2023-04-26T12:56:02.906Z,4384.00
2023-04-26T12:57:02.929Z,4640.00
2023-04-26T12:58:02.894Z,4904.00
2023-04-26T12:59:02.889Z,5188.00
2023-04-26T13:00:02.880Z,5684.00
2023-04-26T13:01:02.935Z,6184.00
2023-04-26T13:02:02.882Z,5972.00
2023-04-26T13:03:03.029Z,6488.00
2023-04-26T13:04:02.977Z,6068.00
2023-04-26T13:05:02.890Z,5896.00
2023-04-26T13:06:02.829Z,6204.00
2023-04-26T13:07:02.784Z,5432.00
2023-04-26T13:08:02.812Z,5420.00
2023-04-26T13:09:02.760Z,5328.00
2023-04-26T13:10:02.768Z,5308.00
2023-04-26T13:11:02.760Z,5388.00
2023-04-26T13:12:02.724Z,5448.00
2023-04-26T13:13:02.753Z,5900.00
2023-04-26T13:14:02.756Z,5800.00
2023-04-26T13:15:02.717Z,5920.00
2023-04-26T13:16:02.763Z,6148.00
2023-04-26T13:17:02.715Z,6372.00
2023-04-26T13:18:02.745Z,6284.00
2023-04-26T13:19:02.717Z,5956.00
2023-04-26T13:20:02.694Z,5800.00
2023-04-26T13:21:02.668Z,5700.00
2023-04-26T13:22:02.651Z,5656.00
2023-04-26T13:23:02.635Z,5692.00
2023-04-26T13:24:02.678Z,5736.00
2023-04-26T13:25:02.785Z,5772.00
2023-04-26T13:26:02.606Z,5716.00
2023-04-26T13:27:02.628Z,5572.00
2023-04-26T13:28:02.606Z,5420.00
2023-04-26T13:29:02.578Z,5256.00
2023-04-26T13:30:02.568Z,5116.00
2023-04-26T13:31:02.600Z,5016.00
2023-04-26T13:32:02.560Z,4936.00
2023-04-26T13:33:02.558Z,4848.00
2023-04-26T13:34:02.518Z,4752.00
2023-04-26T13:35:02.540Z,4652.00
2023-04-26T13:36:02.493Z,4564.00
2023-04-26T13:37:02.504Z,4484.00
2023-04-26T13:38:02.485Z,4436.00
2023-04-26T13:39:02.468Z,4396.00
2023-04-26T13:40:02.465Z,4400.00
2023-04-26T13:41:02.491Z,4308.00
2023-04-26T13:42:02.448Z,4444.00
2023-04-26T13:43:02.480Z,4472.00
2023-04-26T13:44:02.425Z,4860.00
2023-04-26T13:45:02.422Z,5556.00
2023-04-26T13:46:02.436Z,5984.00
2023-04-26T13:47:02.401Z,6492.00
2023-04-26T13:48:02.458Z,6976.00
2023-04-26T13:49:02.354Z,6612.00
2023-04-26T13:50:02.357Z,7344.00
2023-04-26T13:51:03.577Z,6800.00
2023-04-26T13:52:03.333Z,7736.00
2023-04-26T13:53:02.329Z,7828.00
2023-04-26T13:54:02.320Z,6216.00
2023-04-26T13:55:02.300Z,5936.00
2023-04-26T13:56:02.307Z,5848.00
2023-04-26T13:57:02.273Z,5356.00
2023-04-26T13:58:02.266Z,4736.00
2023-04-26T13:59:02.257Z,4516.00
2023-04-26T14:00:02.307Z,4368.00
2023-04-26T14:01:02.266Z,4116.00
2023-04-26T14:02:02.271Z,3964.00
2023-04-26T14:03:02.453Z,3840.00
2023-04-26T14:04:02.679Z,3760.00
2023-04-26T14:05:02.343Z,3728.00
2023-04-26T14:06:02.202Z,3832.00
2023-04-26T14:07:02.176Z,3900.00
2023-04-26T14:08:02.190Z,4092.00
2023-04-26T14:09:02.175Z,4320.00
2023-04-26T14:10:02.195Z,4508.00
2023-04-26T14:11:02.156Z,4636.00
2023-04-26T14:12:08.607Z,4776.00
2023-04-26T14:13:04.133Z,4824.00
2023-04-26T14:14:02.127Z,4852.00
2023-04-26T14:15:02.095Z,4872.00
2023-04-26T14:16:02.122Z,4864.00
2023-04-26T14:17:02.079Z,4848.00
2023-04-26T14:18:02.194Z,5212.00
2023-04-26T14:19:02.054Z,5000.00
2023-04-26T14:20:02.110Z,5408.00
2023-04-26T14:21:02.047Z,5664.00
2023-04-26T14:22:02.047Z,5812.00
2023-04-26T14:23:02.037Z,5980.00
2023-04-26T14:24:02.044Z,5744.00
2023-04-26T14:25:02.052Z,6068.00
2023-04-26T14:26:02.013Z,6236.00
2023-04-26T14:27:01.996Z,6272.00
2023-04-26T14:28:02.001Z,5856.00
2023-04-26T14:29:01.962Z,6020.00
2023-04-26T14:30:01.942Z,5556.00
2023-04-26T14:31:01.947Z,5940.00
2023-04-26T14:32:02.019Z,5760.00
2023-04-26T14:33:01.953Z,5468.00
2023-04-26T14:34:01.929Z,5296.00
2023-04-26T14:35:01.885Z,5372.00
2023-04-26T14:36:01.887Z,5260.00
2023-04-26T14:37:01.884Z,5516.00
2023-04-26T14:38:01.908Z,5552.00
2023-04-26T14:39:01.889Z,5108.00
2023-04-26T14:40:01.934Z,5068.00
2023-04-26T14:41:01.864Z,5072.00
2023-04-26T14:42:01.866Z,5208.00
2023-04-26T14:43:01.839Z,5396.00
2023-04-26T14:44:01.846Z,5756.00